createdAt,value
2019-05-13T00:03:10.694Z,9.20
2019-05-13T00:08:16.707Z,9.20
2019-05-13T00:13:23.743Z,9.10
2019-05-13T00:18:30.111Z,9.10
2019-05-13T00:23:36.335Z,9.00
2019-05-13T00:28:44.396Z,8.90
2019-05-13T00:33:50.475Z,8.80
2019-05-13T00:38:56.539Z,8.70
2019-05-13T00:44:03.836Z,8.70
2019-05-13T00:49:09.995Z,8.60
2019-05-13T00:54:15.989Z,8.60
2019-05-13T00:59:24.102Z,8.50
2019-05-13T01:04:29.911Z,8.50
2019-05-13T01:09:35.960Z,8.40
2019-05-13T01:14:43.242Z,8.40
2019-05-13T01:19:50.338Z,8.30
2019-05-13T01:24:56.385Z,8.20
2019-05-13T01:30:04.102Z,8.20
2019-05-13T01:35:10.732Z,8.10
2019-05-13T01:40:17.060Z,8.10
2019-05-13T01:45:24.068Z,8.10
2019-05-13T01:50:30.449Z,8.00
2019-05-13T01:55:36.452Z,7.90
2019-05-13T02:00:44.241Z,7.80
2019-05-13T02:05:50.451Z,7.80
2019-05-13T02:10:57.583Z,7.70
2019-05-13T02:16:04.266Z,7.70
2019-05-13T02:21:10.786Z,7.60
2019-05-13T02:26:16.796Z,7.60
2019-05-13T02:31:39.062Z,7.50
2019-05-13T02:36:32.969Z,7.40
2019-05-13T02:41:38.567Z,7.40
2019-05-13T02:46:44.743Z,7.20
2019-05-13T02:51:54.280Z,7.20
2019-05-13T02:57:03.272Z,7.10
2019-05-13T03:02:07.556Z,7.10
2019-05-13T03:07:13.753Z,7.00
2019-05-13T03:12:23.167Z,6.90
2019-05-13T03:17:34.231Z,6.80
2019-05-13T03:22:43.111Z,6.80
2019-05-13T03:27:48.325Z,6.80
2019-05-13T03:33:01.509Z,6.70
2019-05-13T03:38:03.726Z,6.60
2019-05-13T03:43:12.845Z,6.60
2019-05-13T03:48:23.579Z,6.60
2019-05-13T03:53:32.608Z,6.60
2019-05-13T03:58:37.993Z,6.50
2019-05-13T04:03:44.426Z,6.50
2019-05-13T04:08:54.828Z,6.40
2019-05-13T04:14:03.202Z,6.40
2019-05-13T04:19:12.089Z,6.40
2019-05-13T04:24:17.840Z,6.30
2019-05-13T04:29:25.172Z,6.30
2019-05-13T04:34:33.679Z,6.30
2019-05-13T04:39:47.452Z,6.40
2019-05-13T04:44:47.425Z,6.40
2019-05-13T04:49:53.709Z,6.40
2019-05-13T04:55:03.419Z,6.40
2019-05-13T05:00:12.908Z,6.40
2019-05-13T05:06:06.332Z,6.30
2019-05-13T05:12:07.918Z,6.50
2019-05-13T05:17:35.996Z,6.50
2019-05-13T05:23:21.451Z,6.60
2019-05-13T05:29:02.576Z,6.60
2019-05-13T05:34:35.740Z,6.70
2019-05-13T05:39:42.745Z,6.90
2019-05-13T05:44:52.009Z,7.00
2019-05-13T05:49:58.547Z,7.10
2019-05-13T05:55:05.553Z,7.30
2019-05-13T06:00:12.667Z,7.40
2019-05-13T06:05:21.249Z,7.60
2019-05-13T06:10:27.263Z,7.80
2019-05-13T06:15:33.770Z,8.10
2019-05-13T06:20:41.848Z,8.10
2019-05-13T06:25:47.990Z,8.30
2019-05-13T06:30:54.263Z,8.40
2019-05-13T06:36:01.198Z,8.50
2019-05-13T06:41:11.440Z,8.60
2019-05-13T06:46:15.355Z,8.60
2019-05-13T06:51:22.205Z,9.00
2019-05-13T06:56:28.581Z,9.30
2019-05-13T07:01:34.684Z,9.70
2019-05-13T07:06:41.904Z,9.80
2019-05-13T07:11:48.507Z,9.80
2019-05-13T07:16:54.928Z,9.90
2019-05-13T07:22:02.819Z,10.10
2019-05-13T07:27:09.014Z,10.60
2019-05-13T07:32:15.305Z,10.20
2019-05-13T07:37:22.089Z,10.70
2019-05-13T07:42:28.473Z,11.20
2019-05-13T07:47:34.619Z,11.20
2019-05-13T07:52:42.164Z,11.00
2019-05-13T07:57:48.571Z,11.40
2019-05-13T08:02:54.884Z,12.10
2019-05-13T08:08:02.247Z,12.40
2019-05-13T08:13:08.814Z,12.20
2019-05-13T08:18:15.215Z,12.90
2019-05-13T08:23:21.768Z,13.10
2019-05-13T08:28:28.209Z,13.10
2019-05-13T08:33:34.370Z,13.70
2019-05-13T08:38:42.969Z,14.40
2019-05-13T08:43:48.332Z,14.90
2019-05-13T08:48:54.689Z,14.70
2019-05-13T08:54:02.375Z,15.80
2019-05-13T08:59:11.357Z,15.00
2019-05-13T09:04:16.791Z,15.60
2019-05-13T09:09:22.951Z,15.70
2019-05-13T09:14:29.090Z,16.60
2019-05-13T09:19:35.132Z,16.50
2019-05-13T09:24:42.482Z,17.00
2019-05-13T09:29:51.879Z,17.20
2019-05-13T09:34:58.468Z,17.70
2019-05-13T09:40:06.035Z,17.40
2019-05-13T09:45:12.798Z,17.70
2019-05-13T09:50:31.416Z,16.80
2019-05-13T09:55:29.376Z,17.80
2019-05-13T10:00:34.710Z,17.10
2019-05-13T10:05:41.113Z,17.90
2019-05-13T10:10:47.506Z,18.70
2019-05-13T10:15:53.644Z,18.00
2019-05-13T10:21:01.084Z,17.90
2019-05-13T10:26:12.474Z,17.80
2019-05-13T10:31:17.651Z,18.50
2019-05-13T10:36:24.226Z,18.40
2019-05-13T10:41:33.238Z,18.60
2019-05-13T10:46:39.573Z,18.80
2019-05-13T10:51:45.823Z,18.00
2019-05-13T11:02:02.246Z,18.00
2019-05-13T11:07:11.864Z,18.70
2019-05-13T11:12:17.060Z,18.70
2019-05-13T11:17:30.797Z,18.60
2019-05-13T11:22:32.726Z,18.40
2019-05-13T11:27:41.928Z,18.20
2019-05-13T11:32:47.252Z,18.60
2019-05-13T11:37:53.720Z,18.90
2019-05-13T11:43:01.766Z,18.20
2019-05-13T11:48:08.164Z,18.80
2019-05-13T11:53:31.680Z,19.40
2019-05-13T11:58:22.512Z,19.50
2019-05-13T12:03:32.145Z,19.20
2019-05-13T12:08:45.091Z,19.10
2019-05-13T12:13:47.453Z,19.30
2019-05-13T12:18:53.556Z,19.30
2019-05-13T12:24:07.270Z,19.40
2019-05-13T12:29:15.916Z,19.60
2019-05-13T12:34:16.404Z,19.40
2019-05-13T12:39:23.948Z,19.10
2019-05-13T12:44:31.599Z,18.90
2019-05-13T12:49:37.894Z,19.40
2019-05-13T12:54:44.539Z,19.50
2019-05-13T12:59:51.403Z,19.80
2019-05-13T13:05:13.325Z,19.70
2019-05-13T13:10:06.487Z,19.90
2019-05-13T13:15:36.075Z,19.90
2019-05-13T13:20:24.371Z,19.70
2019-05-13T13:25:28.896Z,19.80
2019-05-13T13:30:35.739Z,19.80
2019-05-13T13:35:45.229Z,19.50
2019-05-13T13:40:53.465Z,19.60
2019-05-13T13:46:32.649Z,19.80
2019-05-13T13:51:05.712Z,20.30
2019-05-13T13:56:14.545Z,20.10
2019-05-13T14:01:22.374Z,19.80
2019-05-13T14:06:26.942Z,18.00
2019-05-13T14:11:36.273Z,20.20
2019-05-13T14:16:46.376Z,19.70
2019-05-13T14:21:52.430Z,19.90
2019-05-13T14:26:58.432Z,19.60
2019-05-13T14:32:05.151Z,20.10
2019-05-13T14:37:11.856Z,19.60
2019-05-13T14:42:18.539Z,20.00
2019-05-13T14:47:24.834Z,20.10
2019-05-13T14:52:32.276Z,20.10
2019-05-13T14:57:38.728Z,19.70
2019-05-13T15:02:44.963Z,20.00
2019-05-13T15:07:52.850Z,19.70
2019-05-13T15:12:59.134Z,19.80
2019-05-13T15:18:05.292Z,19.80
2019-05-13T15:23:12.071Z,19.90
2019-05-13T15:28:18.646Z,19.30
2019-05-13T15:33:24.809Z,19.60
2019-05-13T15:38:32.083Z,19.80
2019-05-13T15:43:38.602Z,19.80
2019-05-13T15:48:45.910Z,19.90
2019-05-13T15:53:52.091Z,19.90
2019-05-13T15:58:58.308Z,19.70
2019-05-13T16:04:05.277Z,19.80
2019-05-13T16:09:11.814Z,19.50
2019-05-13T16:14:18.631Z,19.50
2019-05-13T16:19:24.966Z,19.00
2019-05-13T16:24:33.195Z,19.20
2019-05-13T16:29:41.569Z,18.60
2019-05-13T16:34:47.559Z,18.90
2019-05-13T16:39:53.976Z,18.60
2019-05-13T16:45:00.455Z,18.50
2019-05-13T16:50:07.661Z,18.50
2019-05-13T16:55:14.535Z,18.10
2019-05-13T17:00:21.167Z,18.40
2019-05-13T17:05:27.385Z,18.20
2019-05-13T17:10:33.745Z,18.10
2019-05-13T17:15:41.659Z,18.20
2019-05-13T17:20:48.096Z,18.20
2019-05-13T17:25:54.380Z,18.50
2019-05-13T17:31:02.155Z,18.30
2019-05-13T17:36:12.375Z,18.70
2019-05-13T17:41:18.227Z,18.50
2019-05-13T17:46:24.446Z,17.80
2019-05-13T17:51:31.568Z,17.30
2019-05-13T17:56:37.921Z,17.40
2019-05-13T18:01:44.174Z,17.30
2019-05-13T18:06:52.356Z,17.20
2019-05-13T18:11:58.828Z,17.00
2019-05-13T18:17:05.409Z,16.80
2019-05-13T18:22:11.842Z,16.70
2019-05-13T18:27:18.234Z,16.60
2019-05-13T18:32:24.516Z,16.60
2019-05-13T18:37:31.574Z,16.50
2019-05-13T18:42:41.945Z,16.50
2019-05-13T18:47:47.564Z,16.40
2019-05-13T18:52:53.909Z,16.20
2019-05-13T18:58:01.058Z,16.00
2019-05-13T19:03:07.564Z,16.00
2019-05-13T19:08:13.856Z,15.80
2019-05-13T19:13:21.732Z,15.80
2019-05-13T19:18:28.240Z,15.60
2019-05-13T19:23:34.403Z,15.50
2019-05-13T19:28:40.674Z,15.50
2019-05-13T19:33:46.909Z,15.40
2019-05-13T19:38:53.228Z,15.30
2019-05-13T19:44:01.461Z,15.20
2019-05-13T19:49:07.394Z,15.10
2019-05-13T19:54:13.539Z,14.90
2019-05-13T19:59:21.611Z,14.70
2019-05-13T20:04:27.794Z,14.60
2019-05-13T20:09:33.951Z,14.50
2019-05-13T20:14:40.089Z,14.40
2019-05-13T20:19:50.488Z,14.30
2019-05-13T20:24:54.148Z,14.20
2019-05-13T20:30:01.706Z,14.00
2019-05-13T20:35:08.780Z,14.00
2019-05-13T20:40:14.979Z,13.90
2019-05-13T20:45:22.420Z,13.70
2019-05-13T20:50:31.726Z,13.70
2019-05-13T20:55:38.319Z,13.60
2019-05-13T21:00:44.713Z,13.50
2019-05-13T21:05:52.047Z,13.30
2019-05-13T21:10:58.269Z,13.20
2019-05-13T21:16:05.379Z,13.10
2019-05-13T21:21:11.739Z,13.10
2019-05-13T21:26:18.018Z,12.90
2019-05-13T21:31:24.139Z,12.80
2019-05-13T21:36:30.223Z,12.80
2019-05-13T21:41:36.752Z,12.70
2019-05-13T21:46:42.976Z,12.50
2019-05-13T21:51:49.086Z,12.40
2019-05-13T21:56:55.219Z,12.40
2019-05-13T22:02:01.775Z,12.20
2019-05-13T22:07:11.941Z,12.20
2019-05-13T22:12:17.329Z,12.10
2019-05-13T22:17:23.458Z,12.00
2019-05-13T22:22:29.604Z,11.90
2019-05-13T22:27:35.797Z,11.80
2019-05-13T22:32:43.121Z,11.70
2019-05-13T22:37:51.171Z,11.60
2019-05-13T22:42:57.207Z,11.50
2019-05-13T22:48:03.709Z,11.40
2019-05-13T22:53:11.932Z,11.40
2019-05-13T22:58:17.873Z,11.30
2019-05-13T23:03:24.086Z,11.20
2019-05-13T23:08:32.513Z,11.10
2019-05-13T23:13:38.151Z,11.10
2019-05-13T23:18:44.397Z,11.00
2019-05-13T23:23:51.470Z,10.80
2019-05-13T23:28:57.800Z,10.70
2019-05-13T23:34:06.680Z,10.70
2019-05-13T23:39:12.865Z,10.70
2019-05-13T23:44:24.909Z,10.60
2019-05-13T23:49:26.659Z,10.50
2019-05-13T23:54:32.789Z,10.50
2019-05-13T23:59:38.974Z,10.40
